Turin, Georgia
Current Conditions -  °F | °C
As of 2:21 PM on Sunday 28 Dec 2014 (Local Time) from KFFC Reporting Station
Overcast Overcast  
Wind Chill: 61°   Ceiling: 500
Heat Index: 61°   Visibility: 8mi
Dew Point: 59°   Wind: 7mph
Humidity: 93%   Direction: 270°W
Pressure: 30.05"   Gusts: NA
Location:  33.33°N, 84.64°W
Report Text: KFFC 281921Z AUTO 27006KT 8SM OVC005 16/15 A3005 RMK AO2 T01610150
Loading
Personal Weather Stations






























Interactive Weather Map New forecast layout! Learn more

10-Day Weather Forecast

Advertisements
Track Severe Weather on mobile